Cpo Baltimore — A8VD9 — position and weather

sailwx.info

Track history (hours):
 
Tides and Currents Weather Stations Pressure Air Temp Water Temp Dewpoint Dewpoint Depression Visibility Wind Speed Wind Dir Waves Ship Positions

Cpo Baltimore

Last reported at 2018-Jan-18 21:30 UTC. Time now 2018-Jan-18 21:51 UTC.
Position N 51°58' E 001°17'.

Length 262 m; draft 10.8 m.

Type: Ship (hazmat cat A). MMSI: 636091990.

Date/timePositionNaut miles runAvg speedWind from/ knotsBaromVisibWave heightAir tempDewpointWater temp
2018-Jan-18 21:30N 51°58' E 001°17'0 0.0
2018-Jan-18 21:00N 51°58' E 001°17'0 0.0
2018-Jan-18 20:30N 51°58' E 001°17'0 0.0
2018-Jan-18 20:00N 51°58' E 001°17'0 0.0
2018-Jan-18 19:30N 51°58' E 001°17'0 0.0
2018-Jan-18 19:00N 51°58' E 001°17'0 0.0
2018-Jan-18 18:30N 51°58' E 001°17'0 0.0
2018-Jan-18 18:00N 51°58' E 001°17'0 0.0
2018-Jan-18 17:30N 51°58' E 001°17'0 0.0
2018-Jan-18 17:00N 51°58' E 001°17'0 0.0
2018-Jan-18 16:30N 51°58' E 001°17'0 0.0
2018-Jan-18 16:00N 51°58' E 001°17'1 1.2
2018-Jan-18 15:31N 51°57' E 001°18'2 4.6
2018-Jan-18 15:00N 51°56' E 001°20'5 9.7
2018-Jan-18 14:30N 51°56' E 001°28'5 9.6
2018-Jan-18 14:00N 51°53' E 001°34'4 8.2
2018-Jan-18 13:30N 51°52' E 001°40'2 3.5
2018-Jan-18 12:59N 51°53' E 001°41'0 0.2
2018-Jan-18 12:29N 51°53' E 001°41'0 0.2
2018-Jan-18 11:59N 51°53' E 001°41'0 0.3
2018-Jan-18 11:29N 51°53' E 001°41'0 0.1
2018-Jan-18 10:59N 51°53' E 001°41'0 0.0
2018-Jan-18 10:29N 51°53' E 001°41'0 0.0
2018-Jan-18 09:59N 51°53' E 001°41'0 0.2
2018-Jan-18 09:29N 51°53' E 001°41'0 0.1
2018-Jan-18 08:59N 51°53' E 001°41'0 0.2
2018-Jan-18 08:29N 51°53' E 001°41'0 0.1
2018-Jan-18 07:59N 51°53' E 001°41'0 0.2
2018-Jan-18 07:29N 51°53' E 001°41'0 0.3
2018-Jan-18 06:59N 51°53' E 001°41'0 0.0
2018-Jan-18 06:29N 51°53' E 001°41'0 0.0
2018-Jan-18 05:59N 51°54' E 001°41'0 0.1
2018-Jan-18 05:29N 51°54' E 001°41'0 0.0
2018-Jan-18 04:59N 51°54' E 001°41'0 0.1
2018-Jan-18 04:29N 51°54' E 001°41'0 0.0
2018-Jan-18 03:59N 51°54' E 001°41'0 0.0
2018-Jan-18 03:29N 51°54' E 001°41'0 0.1
2018-Jan-18 02:59N 51°54' E 001°41'0 0.1
2018-Jan-18 02:29N 51°54' E 001°41'0 0.0
2018-Jan-18 01:59N 51°54' E 001°41'0 0.0
2018-Jan-18 01:29N 51°54' E 001°41'0 0.0
2018-Jan-18 00:59N 51°54' E 001°41'0 0.0
2018-Jan-17 23:59N 51°54' E 001°41'0 0.4
2018-Jan-17 23:56N 51°54' E 001°41'  
2018-Jan-12 15:01N 38°03' W 009°41'1020.3
2018-Jan-12 14:30N 37°53' W 009°38'1220.1
2018-Jan-12 13:56N 37°42' W 009°34'4322.1
2018-Jan-12 12:00N 37°00' W 009°24'1414.1 140 / 111026.710.8 19.012.417.0
2018-Jan-12 11:00N 36°48' W 009°14'1019.0
2018-Jan-12 10:29N 36°43' W 009°04'1019.0
2018-Jan-12 09:57N 36°40' W 008°52'1121.3
2018-Jan-12 09:24N 36°37' W 008°38'10620.0
2018-Jan-12 04:07N 36°03' W 006°34'211.9
2018-Jan-12 03:58N 36°02' W 006°31'1118.3
2018-Jan-12 03:22N 35°59' W 006°19'718.6
2018-Jan-12 03:00N 35°57' W 006°10'918.3
2018-Jan-12 02:30N 35°57' W 005°59'917.7
2018-Jan-12 02:00N 35°57' W 005°48'816.4
2018-Jan-12 01:31N 35°57' W 005°38'816.5
2018-Jan-12 01:01N 35°59' W 005°29'816.9
2018-Jan-12 00:31N 36°01' W 005°18'816.6
2018-Jan-12 00:00N 36°03' W 005°08'1018.4
2018-Jan-11 23:27N 36°04' W 004°56'816.0
2018-Jan-11 22:58N 36°05' W 004°46'817.3
2018-Jan-11 22:30N 36°07' W 004°37'918.2
2018-Jan-11 22:00N 36°08' W 004°25'18818.7
2018-Jan-11 12:00N 36°42' W 000°36'46418.0 280 / 171021.410.8 19.010.417.0
2018-Jan-10 10:12N 38°39' E 008°52'719.0
2018-Jan-10 09:50N 38°42' E 008°60'719.3
2018-Jan-10 09:27N 38°45' E 009°08'920.3
2018-Jan-10 09:00N 38°48' E 009°19'1223.2
2018-Jan-10 08:30N 38°53' E 009°33'2422.9
2018-Jan-10 07:27N 39°03' E 010°01'21719.0
2018-Jan-09 20:01N 40°29' E 014°20'219.1
2018-Jan-09 19:55N 40°30' E 014°22'40 2.0
2018-Jan-08 23:32N 39°57' E 014°53'013.0
2018-Jan-08 23:30N 39°57' E 014°53'912.6
2018-Jan-08 22:47N 39°49' E 014°57'  
Track history (hours):
 
Tides and Currents Weather Stations Pressure Air Temp Water Temp Dewpoint Dewpoint Depression Visibility Wind Speed Wind Dir Waves Ship Positions

Cpo Baltimore

Last reported at 2018-Jan-18 21:30 UTC. Time now 2018-Jan-18 21:51 UTC.
Position N 51°58' E 001°17'.

Length 262 m; draft 10.8 m.

Type: Ship (hazmat cat A). MMSI: 636091990.

Date/timePositionNaut miles runAvg speedWind from/ knotsBaromVisibWave heightAir tempDewpointWater temp
2018-Jan-18 21:30N 51°58' E 001°17'0 0.0
2018-Jan-18 21:00N 51°58' E 001°17'0 0.0
2018-Jan-18 20:30N 51°58' E 001°17'0 0.0
2018-Jan-18 20:00N 51°58' E 001°17'0 0.0
2018-Jan-18 19:30N 51°58' E 001°17'0 0.0
2018-Jan-18 19:00N 51°58' E 001°17'0 0.0
2018-Jan-18 18:30N 51°58' E 001°17'0 0.0
2018-Jan-18 18:00N 51°58' E 001°17'0 0.0
2018-Jan-18 17:30N 51°58' E 001°17'0 0.0
2018-Jan-18 17:00N 51°58' E 001°17'0 0.0
2018-Jan-18 16:30N 51°58' E 001°17'0 0.0
2018-Jan-18 16:00N 51°58' E 001°17'1 1.2
2018-Jan-18 15:31N 51°57' E 001°18'2 4.6
2018-Jan-18 15:00N 51°56' E 001°20'5 9.7
2018-Jan-18 14:30N 51°56' E 001°28'5 9.6
2018-Jan-18 14:00N 51°53' E 001°34'4 8.2
2018-Jan-18 13:30N 51°52' E 001°40'2 3.5
2018-Jan-18 12:59N 51°53' E 001°41'0 0.2
2018-Jan-18 12:29N 51°53' E 001°41'0 0.2
2018-Jan-18 11:59N 51°53' E 001°41'0 0.3
2018-Jan-18 11:29N 51°53' E 001°41'0 0.1
2018-Jan-18 10:59N 51°53' E 001°41'0 0.0
2018-Jan-18 10:29N 51°53' E 001°41'0 0.0
2018-Jan-18 09:59N 51°53' E 001°41'0 0.2
2018-Jan-18 09:29N 51°53' E 001°41'0 0.1
2018-Jan-18 08:59N 51°53' E 001°41'0 0.2
2018-Jan-18 08:29N 51°53' E 001°41'0 0.1
2018-Jan-18 07:59N 51°53' E 001°41'0 0.2
2018-Jan-18 07:29N 51°53' E 001°41'0 0.3
2018-Jan-18 06:59N 51°53' E 001°41'0 0.0
2018-Jan-18 06:29N 51°53' E 001°41'0 0.0
2018-Jan-18 05:59N 51°54' E 001°41'0 0.1
2018-Jan-18 05:29N 51°54' E 001°41'0 0.0
2018-Jan-18 04:59N 51°54' E 001°41'0 0.1
2018-Jan-18 04:29N 51°54' E 001°41'0 0.0
2018-Jan-18 03:59N 51°54' E 001°41'0 0.0
2018-Jan-18 03:29N 51°54' E 001°41'0 0.1
2018-Jan-18 02:59N 51°54' E 001°41'0 0.1
2018-Jan-18 02:29N 51°54' E 001°41'0 0.0
2018-Jan-18 01:59N 51°54' E 001°41'0 0.0
2018-Jan-18 01:29N 51°54' E 001°41'0 0.0
2018-Jan-18 00:59N 51°54' E 001°41'0 0.0
2018-Jan-17 23:59N 51°54' E 001°41'0 0.4
2018-Jan-17 23:56N 51°54' E 001°41'  
2018-Jan-12 15:01N 38°03' W 009°41'1020.3
2018-Jan-12 14:30N 37°53' W 009°38'1220.1
2018-Jan-12 13:56N 37°42' W 009°34'4322.1
2018-Jan-12 12:00N 37°00' W 009°24'1414.1 140 / 111026.710.8 19.012.417.0
2018-Jan-12 11:00N 36°48' W 009°14'1019.0
2018-Jan-12 10:29N 36°43' W 009°04'1019.0
2018-Jan-12 09:57N 36°40' W 008°52'1121.3
2018-Jan-12 09:24N 36°37' W 008°38'10620.0
2018-Jan-12 04:07N 36°03' W 006°34'211.9
2018-Jan-12 03:58N 36°02' W 006°31'1118.3
2018-Jan-12 03:22N 35°59' W 006°19'718.6
2018-Jan-12 03:00N 35°57' W 006°10'918.3
2018-Jan-12 02:30N 35°57' W 005°59'917.7
2018-Jan-12 02:00N 35°57' W 005°48'816.4
2018-Jan-12 01:31N 35°57' W 005°38'816.5
2018-Jan-12 01:01N 35°59' W 005°29'816.9
2018-Jan-12 00:31N 36°01' W 005°18'816.6
2018-Jan-12 00:00N 36°03' W 005°08'1018.4
2018-Jan-11 23:27N 36°04' W 004°56'816.0
2018-Jan-11 22:58N 36°05' W 004°46'817.3
2018-Jan-11 22:30N 36°07' W 004°37'918.2
2018-Jan-11 22:00N 36°08' W 004°25'18818.7
2018-Jan-11 12:00N 36°42' W 000°36'46418.0 280 / 171021.410.8 19.010.417.0
2018-Jan-10 10:12N 38°39' E 008°52'719.0
2018-Jan-10 09:50N 38°42' E 008°60'719.3
2018-Jan-10 09:27N 38°45' E 009°08'920.3
2018-Jan-10 09:00N 38°48' E 009°19'1223.2
2018-Jan-10 08:30N 38°53' E 009°33'2422.9
2018-Jan-10 07:27N 39°03' E 010°01'21719.0
2018-Jan-09 20:01N 40°29' E 014°20'219.1
2018-Jan-09 19:55N 40°30' E 014°22'40 2.0
2018-Jan-08 23:32N 39°57' E 014°53'013.0
2018-Jan-08 23:30N 39°57' E 014°53'912.6
2018-Jan-08 22:47N 39°49' E 014°57'  

Dump ship's entire track history